Mount Uniacke, Canada
Current Conditions -  °F | °C
As of 5:00 PM on Tuesday 21 Oct 2014 (Local Time) from CYHZ Reporting Station
Broken Clouds Broken Clouds  
Wind Chill: 13°   Ceiling: 17000
Heat Index: 13°   Visibility: 15mi
Dew Point:   Wind: 3mph
Humidity: 51%   Direction: 180°S
Pressure: 30.16"   Gusts: NA
Location:  44.88°N, 63.83°W
Report Text: CYHZ 212000Z 18003KT 150V240 15SM FEW020 BKN170 BKN220 13/03 A3016 RMK CF1AC5CI2 CF TR SLP217
Loading
Personal Weather Stations






























Interactive Weather Map
Tropical Storm Tracking
New forecast layout! Learn more

10-Day Weather Forecast

Advertisements
Track Severe Weather on mobile